AirNav   ProFlight Series 2 Aviation Headset
 
 399 users online  

WI43 Atkins Ridge Airport
Daleyville, Wisconsin, USA

GOING TO DALEYVILLE?


FAA INFORMATION EFFECTIVE 16 JULY 2020

Location

FAA Identifier: WI43
Lat/Long: 42-56-55.9940N 089-49-31.0000W
42-56.933233N 089-49.516667W
42.9488872,-89.8252778
(estimated)
Elevation: 1090 ft. / 332 m (estimated)
Variation: 01E (1985)
From city: 2 miles N of DALEYVILLE, WI
Time zone: UTC -5 (UTC -6 during Standard Time)
Zip code: 53517

Airport Operations

Airport use: Private use. Permission required prior to landing
Activation date: 11/1988
Control tower: no
ARTCC: CHICAGO CENTER
FSS: GREEN BAY FLIGHT SERVICE STATION
Attendance: UNATNDD
Wind indicator: yes
Segmented circle: no

Airport Communications

WX AWOS-3 at C29 (16 nm NE): 118.675 (608-833-1686)
WX AWOS-3 at MRJ (18 nm W): 118.525 (608-987-2157)

Nearby radio navigation aids

VOR radial/distance  VOR name  Freq  Var
MSNr238/24.3MADISON VORTAC108.6003E
LNRr147/24.7LONE ROCK VOR/DME112.8000E
DLLr181/36.2DELLS VORTAC117.0003E
JVLr303/39.4JANESVILLE VOR/DME114.3003E

Airport Services

Runway Information

Runway 18/36

Dimensions: 2400 x 50 ft. / 732 x 15 m
Surface: turf
RUNWAY 18  RUNWAY 36
Traffic pattern: leftleft

Airport Ownership and Management from official FAA records

Ownership: Privately-owned
Owner: DANIEL S ATKINS
517 HALF MILE RD
VERONA, WI 53593
Phone 608-437-4567
Manager: DANIEL S ATKINS
517 HALF MILE RD
VERONA, WI 53593
Phone 608-845-6644

Airport Operational Statistics

Aircraft based on the field: 1
Single engine airplanes: 1
    

Additional Remarks

FOR CD CTC CHICAGO ARTCC AT 630-906-8921.

Instrument Procedures

There are no published instrument procedures at WI43.

Some nearby airports with instrument procedures:

C29 - Middleton Municipal Airport - Morey Field (16 nm NE)
KMRJ - Iowa County Airport (18 nm W)
91C - Sauk-Prairie Airport (21 nm N)
KLNR - Tri-County Regional Airport (22 nm NW)
KEFT - Monroe Municipal Airport (23 nm SE)
 
Loc | Ops | Rwys | IFR | FBO | Links
Com | Nav | Svcs | Stats | Notes
Area around WI43 (Atkins Ridge Airport)
 
Road maps at: MapQuest Bing Google
 
Aerial photo
No photo
 
Sectional chart

 
Airport distance calculator
Flying to Atkins Ridge Airport? Find the distance to fly.

From to WI43

Sunrise and sunset
Times for 10-Aug-2020
 Local
(UTC-5)
 Zulu
(UTC)
Morning civil twilight05:3110:31
Sunrise06:0211:02
Sunset20:0701:07
Evening civil twilight20:3801:38

Current date and time
Zulu (UTC)  10-Aug-2020 08:18:50
Local (UTC-5)  10-Aug-2020 03:18:50
 
METAR
KC29 
16nm NE 
100755Z AUTO 19006KT 1SM OVC002 23/22 A2993 RMK AO1 T02300218
KMRJ 
18nm W 
100755Z AUTO 16004KT 1/4SM FG OVC002 22/22 A2992 RMK AO2
KLNR 
22nm NW 
100756Z AUTO 00000KT 5SM BR CLR 21/21 A2989 RMK AO2 SLP114 T02110206
KEFT 
23nm SE 
100755Z AUTO 16005KT 3/4SM BR OVC002 22/22 A2993 RMK AO2 T02200215
KMSN 
24nm NE 
100753Z AUTO 19005KT 8SM OVC004 22/22 A2992 RMK AO2 SLP126 T02220217
KPVB 
31nm SW 
100755Z AUTO 16006KT 3SM CLR 23/23 A2992 RMK AO1 T02290229
TAF
KMSN 
24nm NE 
100520Z 1006/1106 16006KT P6SM SCT015 SCT250 TEMPO 1006/1009 4SM BR BKN015 FM100900 17007KT 4SM BR BKN011 FM101100 17007KT 5SM BR VCTS BKN009CB FM101400 22007KT P6SM VCTS BKN020CB FM101800 29009KT P6SM VCTS SCT040CB BKN050
NOTAMs
Click for the latest NOTAMs
NOTAMs are issued by the DoD/FAA and will open in a separate window not controlled by AirNav.

 

 
 

Would you like to see your business listed on this page?

 If your business provides an interesting product or service to pilots, flight crews, aircraft, or users of the Atkins Ridge Airport, you should consider listing it here.  To start the listing process, click on the button below
 
Add a business
 

Other Pages about Atkins Ridge Airport

Update a link
 
Copyright © AirNav, LLC. All rights reserved. Privacy Policy  Contact